Wheatley, AR (72392)

8:12 PM CDT on May 22, 2015 (GMT -0500)
marianna,arrkansas | | Change Station
CLOSE
Current Station
Personal Weather Station
Location: Marianna, AR
Elevation: 230 ft
Nearby Weather Stations

Elev 230 ft 34.77 °N, 90.77 °W | Updated 4 minutes ago

Partly Cloudy
Partly Cloudy
66.2 °F
Feels Like 66.2 °F
N
0.0
Wind Variable Wind from NE

Today
High -- | Low -- °F
--% Chance of Precip.
Yesterday
High -- | Low -- °F
Precip. -- in
5:56 AM 8:06 PM
Waxing Crescent, 25% visible
Pressure 30.23 in
Visibility 10.0 miles
Clouds Clear
Dew Point 58 °F
Humidity 74%
Rainfall 0.00 in
Snow Depth Not available.
UV 0 out of 12
Pollen 7.50 out of 12
Air Quality Not available.
Flu Activity No Activity
METAR KSGT 230055Z AUTO 08003KT 10SM CLR 20/12 A3023 RMK AO1

More Conditions Fewer Conditions

Pressure 30.23 in
Visibility 10.0 miles
Clouds Clear
Dew Point 58 °F
Humidity 74%
Rainfall 0.00 in
Snow Depth Not available.
UV 0 out of 12
Pollen 7.50 out of 12
Air Quality Not available.
Flu Activity No Activity
METAR KSGT 230055Z AUTO 08003KT 10SM CLR 20/12 A3023 RMK AO1

More Conditions Fewer Conditions

10-Day Weather Forecast

Almanac

Astronomy

May. 22, 2015 Rise Set
Actual Time
Civil Twilight
Nautical Twilight
Astronomical Twilight
Moon
Length of Visible Light
Length of Day
Tomorrow will be .
, % of the Moon is Illuminated

Today's Extremes

State Highs State Lows

Community

WunderPhotos

Upload Photos

1,823,355 photos uploaded!

WunderBlogs® & News

Nearby

Air Quality

  Air Quality AQ Index Pollutant
Not available.

Snow Depth

Station Depth Elevation

Earthquake Activity

City Distance Mag. Time & Date
Minimum magnitude displayed is 2.5.

Coastal Water Temperatures

Place Temperature

Stations

Nearby Weather Stations

Station Location Temp. Windchill Dew Point Humidity Wind Precip. Elev Updated Type